createdAt,value
2023-01-27T00:02:38.501Z,98760.82
2023-01-27T00:05:14.276Z,98757.42
2023-01-27T00:08:05.283Z,98755.29
2023-01-27T00:10:48.075Z,98755.69
2023-01-27T00:13:36.074Z,98762.73
2023-01-27T00:16:20.125Z,98765.77
2023-01-27T00:19:15.065Z,98763.39
2023-01-27T00:22:22.073Z,98763.95
2023-01-27T00:24:56.246Z,98761.04
2023-01-27T00:27:44.067Z,98764.15
2023-01-27T00:30:20.204Z,98764.64
2023-01-27T00:33:26.068Z,98763.69
2023-01-27T00:36:06.420Z,98768.69
2023-01-27T00:38:56.271Z,98769.80
2023-01-27T00:41:38.228Z,98765.03
2023-01-27T00:44:20.071Z,98763.02
2023-01-27T00:47:08.271Z,98755.90
2023-01-27T00:49:50.273Z,98754.05
2023-01-27T00:52:40.062Z,98752.89
2023-01-27T00:55:16.186Z,98754.65
2023-01-27T00:58:04.279Z,98754.63
2023-01-27T01:00:46.266Z,98754.48
2023-01-27T01:03:42.076Z,98756.23
2023-01-27T01:06:30.116Z,98751.48
2023-01-27T01:09:13.276Z,98750.55
2023-01-27T01:12:09.052Z,98747.76
2023-01-27T01:14:57.271Z,98749.64
2023-01-27T01:17:32.201Z,98747.20
2023-01-27T01:20:20.051Z,98747.19
2023-01-27T01:22:54.197Z,98743.72
2023-01-27T01:25:42.056Z,98739.56
2023-01-27T01:28:17.201Z,98735.48
2023-01-27T01:31:12.097Z,98743.32
2023-01-27T01:33:47.211Z,98738.10
2023-01-27T01:36:35.258Z,98735.86
2023-01-27T01:39:17.385Z,98732.46
2023-01-27T01:42:06.059Z,98736.05
2023-01-27T01:44:48.051Z,98738.38
2023-01-27T01:47:43.255Z,98732.80
2023-01-27T01:50:31.250Z,98732.35
2023-01-27T01:53:08.258Z,98734.14
2023-01-27T01:55:57.262Z,98736.41
2023-01-27T02:01:38.258Z,98738.74
2023-01-27T02:04:38.033Z,98739.29
2023-01-27T02:07:38.058Z,98734.94
2023-01-27T02:10:13.447Z,98738.30
2023-01-27T02:13:01.070Z,98738.24
2023-01-27T02:15:44.053Z,98738.05
2023-01-27T02:18:40.047Z,98739.02
2023-01-27T02:21:28.075Z,98741.32
2023-01-27T02:24:19.069Z,98740.91
2023-01-27T02:27:14.069Z,98742.23
2023-01-27T02:30:02.066Z,98749.39
2023-01-27T02:32:44.058Z,98747.08
2023-01-27T02:35:45.037Z,98744.00
2023-01-27T02:38:33.067Z,98741.84
2023-01-27T02:41:25.042Z,98746.32
2023-01-27T02:44:07.403Z,98747.35
2023-01-27T02:46:49.071Z,98745.45
2023-01-27T02:49:30.164Z,98743.69
2023-01-27T02:52:11.263Z,98743.52
2023-01-27T02:54:53.243Z,98741.19
2023-01-27T02:57:34.036Z,98740.47
2023-01-27T03:00:18.365Z,98739.04
2023-01-27T03:03:06.236Z,98739.17
2023-01-27T03:05:49.245Z,98740.06
2023-01-27T03:08:44.041Z,98740.73
2023-01-27T03:11:50.055Z,98737.23
2023-01-27T03:14:49.588Z,98738.27
2023-01-27T03:17:50.047Z,98736.88
2023-01-27T03:20:32.381Z,98734.94
2023-01-27T03:23:14.019Z,98737.45
2023-01-27T03:26:09.187Z,98737.33
2023-01-27T03:29:17.120Z,98740.16
2023-01-27T03:31:59.093Z,98737.13
2023-01-27T03:34:54.033Z,98735.42
2023-01-27T03:38:01.052Z,98733.31
2023-01-27T03:41:01.031Z,98728.27
2023-01-27T03:44:08.037Z,98724.30
2023-01-27T03:46:43.175Z,98720.85
2023-01-27T03:49:31.056Z,98726.06
2023-01-27T03:52:06.187Z,98725.45
2023-01-27T03:54:54.023Z,98724.17
2023-01-27T03:57:28.170Z,98726.27
2023-01-27T04:00:17.029Z,98726.27
2023-01-27T04:03:18.036Z,98729.98
2023-01-27T04:06:38.030Z,98730.98
2023-01-27T04:09:27.114Z,98735.44
2023-01-27T04:12:03.175Z,98735.23
2023-01-27T04:14:51.033Z,98739.27
2023-01-27T04:17:33.030Z,98737.83
2023-01-27T04:20:28.099Z,98738.60
2023-01-27T04:23:16.140Z,98734.39
2023-01-27T04:25:54.551Z,98735.04
2023-01-27T04:28:44.585Z,98736.30
2023-01-27T04:31:33.129Z,98736.38
2023-01-27T04:34:07.767Z,98735.33
2023-01-27T04:36:56.058Z,98738.02
2023-01-27T04:39:30.477Z,98734.42
2023-01-27T04:42:19.023Z,98736.05
2023-01-27T04:44:53.453Z,98742.09
2023-01-27T04:47:41.077Z,98738.66
2023-01-27T04:50:22.027Z,98741.23
2023-01-27T04:53:03.239Z,98739.75
2023-01-27T04:55:44.098Z,98737.45
2023-01-27T04:58:25.174Z,98737.88
2023-01-27T05:01:07.069Z,98741.71
2023-01-27T05:03:48.251Z,98742.27
2023-01-27T05:06:31.007Z,98745.79
2023-01-27T05:09:19.030Z,98745.20
2023-01-27T05:12:00.020Z,98748.89
2023-01-27T05:14:41.151Z,98754.89
2023-01-27T05:17:22.027Z,98751.37
2023-01-27T05:20:03.307Z,98753.39
2023-01-27T05:22:45.100Z,98753.23
2023-01-27T05:25:33.034Z,98753.55
2023-01-27T05:28:08.475Z,98756.37
2023-01-27T05:30:56.136Z,98754.17
2023-01-27T05:33:51.111Z,98750.40
2023-01-27T05:36:46.033Z,98748.08
2023-01-27T05:39:34.015Z,98745.34
2023-01-27T05:42:09.183Z,98742.89
2023-01-27T05:44:57.016Z,98749.77
2023-01-27T05:47:32.161Z,98754.70
2023-01-27T05:50:20.095Z,98753.15
2023-01-27T05:53:02.091Z,98756.41
2023-01-27T05:55:51.046Z,98757.61
2023-01-27T05:58:26.303Z,98759.20
2023-01-27T06:01:20.003Z,98761.50
2023-01-27T06:03:55.140Z,98762.66
2023-01-27T06:06:42.985Z,98765.45
2023-01-27T06:09:18.167Z,98766.17
2023-01-27T06:12:06.106Z,98768.91
2023-01-27T06:14:41.147Z,98769.80
2023-01-27T06:17:29.074Z,98762.73
2023-01-27T06:20:04.186Z,98766.14
2023-01-27T06:22:52.045Z,98769.73
2023-01-27T06:25:27.120Z,98772.33
2023-01-27T06:28:29.999Z,98772.09
2023-01-27T06:31:13.802Z,98774.38
2023-01-27T06:34:03.073Z,98775.16
2023-01-27T06:36:44.046Z,98774.30
2023-01-27T06:39:25.123Z,98782.66
2023-01-27T06:42:07.017Z,98780.82
2023-01-27T06:44:54.992Z,98779.34
2023-01-27T06:47:36.029Z,98781.40
2023-01-27T06:50:25.099Z,98784.38
2023-01-27T06:53:01.652Z,98783.35
2023-01-27T06:55:51.995Z,98789.98
2023-01-27T06:58:33.045Z,98791.91
2023-01-27T07:01:14.258Z,98796.56
2023-01-27T07:03:55.984Z,98798.59
2023-01-27T07:06:43.994Z,98796.47
2023-01-27T07:09:18.463Z,98799.22
2023-01-27T07:12:06.087Z,98797.95
2023-01-27T07:14:40.508Z,98795.06
2023-01-27T07:17:28.034Z,98795.76
2023-01-27T07:20:09.124Z,98799.39
2023-01-27T07:22:57.254Z,98803.50
2023-01-27T07:25:33.923Z,98798.91
2023-01-27T07:28:22.979Z,98805.11
2023-01-27T07:31:18.154Z,98807.86
2023-01-27T07:34:06.027Z,98807.57
2023-01-27T07:36:48.025Z,98809.64
2023-01-27T07:39:36.065Z,98806.59
2023-01-27T07:42:12.246Z,98805.30
2023-01-27T07:45:00.004Z,98813.23
2023-01-27T07:47:35.299Z,98811.30
2023-01-27T07:50:23.972Z,98808.44
2023-01-27T07:52:59.189Z,98805.02
2023-01-27T07:55:47.022Z,98808.91
2023-01-27T07:58:22.162Z,98808.81
2023-01-27T08:01:13.104Z,98810.27
2023-01-27T08:03:48.208Z,98814.20
2023-01-27T08:06:38.024Z,98810.98
2023-01-27T08:09:19.992Z,98812.55
2023-01-27T08:12:08.017Z,98821.59
2023-01-27T08:14:56.065Z,98821.70
2023-01-27T08:17:42.163Z,98821.61
2023-01-27T08:20:26.121Z,98817.83
2023-01-27T08:23:06.964Z,98813.16
2023-01-27T08:25:48.143Z,98813.95
2023-01-27T08:28:29.957Z,98813.05
2023-01-27T08:31:13.180Z,98812.70
2023-01-27T08:33:58.973Z,98810.62
2023-01-27T08:36:40.229Z,98818.98
2023-01-27T08:39:22.025Z,98823.10
2023-01-27T08:42:04.279Z,98825.70
2023-01-27T08:44:46.015Z,98827.65
2023-01-27T08:47:27.423Z,98826.70
2023-01-27T08:50:11.117Z,98824.16
2023-01-27T08:52:59.181Z,98822.54
2023-01-27T08:55:34.426Z,98829.30
2023-01-27T08:58:22.165Z,98830.23
2023-01-27T09:01:03.719Z,98828.73
2023-01-27T09:03:53.215Z,98831.66
2023-01-27T09:06:34.997Z,98833.79
2023-01-27T09:09:22.979Z,98834.33
2023-01-27T09:12:04.176Z,98830.29
2023-01-27T09:14:53.155Z,98831.55
2023-01-27T09:17:28.595Z,98828.92
2023-01-27T09:20:17.958Z,98829.64
2023-01-27T09:23:01.951Z,98831.88
2023-01-27T09:25:50.153Z,98835.19
2023-01-27T09:28:31.961Z,98836.45
2023-01-27T09:31:20.245Z,98837.36
2023-01-27T09:33:56.986Z,98839.19
2023-01-27T09:36:50.949Z,98842.09
2023-01-27T09:39:33.443Z,98845.48
2023-01-27T09:42:37.081Z,98848.95
2023-01-27T09:45:17.976Z,98850.16
2023-01-27T09:48:21.081Z,98848.92
2023-01-27T09:51:10.949Z,98853.42
2023-01-27T09:54:04.280Z,98854.16
2023-01-27T09:57:07.965Z,98849.25
2023-01-27T10:00:06.076Z,98847.91
2023-01-27T10:02:46.359Z,98846.05
2023-01-27T10:06:06.137Z,98846.14
2023-01-27T10:09:07.160Z,98844.84
2023-01-27T10:12:14.151Z,98840.89
2023-01-27T10:15:10.783Z,98840.27
2023-01-27T10:18:09.057Z,98835.73
2023-01-27T10:21:45.629Z,98833.11
2023-01-27T10:24:58.860Z,98828.52
2023-01-27T10:28:00.938Z,98824.85
2023-01-27T10:31:05.075Z,98822.11
2023-01-27T10:34:05.163Z,98821.19
2023-01-27T10:37:14.203Z,98816.65
2023-01-27T10:40:13.178Z,98813.40
2023-01-27T10:42:55.065Z,98816.05
2023-01-27T10:45:45.017Z,98814.38
2023-01-27T10:48:43.887Z,98816.96
2023-01-27T10:51:39.947Z,98812.96
2023-01-27T10:54:22.267Z,98816.52
2023-01-27T10:57:14.933Z,98822.07
2023-01-27T11:00:37.898Z,98826.53
2023-01-27T11:03:30.967Z,98826.30
2023-01-27T11:06:28.959Z,98827.44
2023-01-27T11:09:37.943Z,98829.58
2023-01-27T11:12:14.355Z,98831.52
2023-01-27T11:15:04.927Z,98829.48
2023-01-27T11:17:54.926Z,98824.90
2023-01-27T11:20:50.203Z,98821.05
2023-01-27T11:23:38.021Z,98822.59
2023-01-27T11:26:43.920Z,98821.81
2023-01-27T11:29:45.023Z,98821.51
2023-01-27T11:32:47.958Z,98823.64
2023-01-27T11:35:35.952Z,98821.69
2023-01-27T11:38:17.921Z,98823.34
2023-01-27T11:41:14.947Z,98821.21
2023-01-27T11:44:02.914Z,98816.61
2023-01-27T11:46:39.264Z,98816.80
2023-01-27T11:49:40.918Z,98818.95
2023-01-27T11:52:20.062Z,98821.95
2023-01-27T11:55:34.917Z,98826.33
2023-01-27T11:58:20.043Z,98826.63
2023-01-27T12:01:07.917Z,98826.94
2023-01-27T12:04:27.325Z,98827.10
2023-01-27T12:07:36.908Z,98831.00
2023-01-27T12:10:39.918Z,98837.64
2023-01-27T12:13:39.933Z,98835.98
2023-01-27T12:16:30.905Z,98837.18
2023-01-27T12:19:11.066Z,98838.33
2023-01-27T12:22:02.925Z,98839.72
2023-01-27T12:24:41.038Z,98838.10
2023-01-27T12:27:37.927Z,98835.27
2023-01-27T12:30:41.069Z,98829.46
2023-01-27T12:33:38.915Z,98832.52
2023-01-27T12:36:25.038Z,98836.69
2023-01-27T12:39:15.109Z,98838.12
2023-01-27T12:41:50.242Z,98840.90
2023-01-27T12:44:49.911Z,98839.09
2023-01-27T12:47:33.045Z,98840.29
2023-01-27T12:50:41.919Z,98837.54
2023-01-27T12:53:33.914Z,98836.41
2023-01-27T12:56:34.894Z,98833.63
2023-01-27T12:59:25.976Z,98830.44
2023-01-27T13:02:09.094Z,98827.45
2023-01-27T13:05:06.922Z,98824.72
2023-01-27T13:08:00.118Z,98824.10
2023-01-27T13:10:57.134Z,98821.38
2023-01-27T13:13:34.025Z,98824.90
2023-01-27T13:16:25.014Z,98820.93
2023-01-27T13:19:10.907Z,98815.41
2023-01-27T13:22:02.098Z,98815.84
2023-01-27T13:24:53.910Z,98813.72
2023-01-27T13:27:52.894Z,98817.73
2023-01-27T13:30:52.497Z,98823.86
2023-01-27T13:33:44.911Z,98817.52
2023-01-27T13:36:30.904Z,98818.98
2023-01-27T13:39:25.905Z,98821.55
2023-01-27T13:42:53.585Z,98821.63
2023-01-27T13:45:51.897Z,98821.23
2023-01-27T13:48:32.240Z,98815.30
2023-01-27T13:51:29.896Z,98820.08
2023-01-27T13:54:19.288Z,98824.48
2023-01-27T13:57:28.011Z,98829.88
2023-01-27T14:00:18.351Z,98836.07
2023-01-27T14:03:41.903Z,98837.31
2023-01-27T14:06:32.019Z,98840.83
2023-01-27T14:09:32.956Z,98839.89
2023-01-27T14:12:32.943Z,98842.05
2023-01-27T14:15:33.451Z,98844.54
2023-01-27T14:18:29.207Z,98846.86
2023-01-27T14:21:40.228Z,98843.98
2023-01-27T14:24:50.329Z,98848.11
2023-01-27T14:27:32.996Z,98852.30
2023-01-27T14:30:22.882Z,98851.35
2023-01-27T14:33:29.178Z,98854.77
2023-01-27T14:36:31.250Z,98856.17
2023-01-27T14:39:29.080Z,98854.02
2023-01-27T14:42:44.095Z,98856.94
2023-01-27T14:46:03.874Z,98856.30
2023-01-27T14:49:04.584Z,98853.66
2023-01-27T14:52:11.876Z,98853.17
2023-01-27T14:55:19.158Z,98862.46
2023-01-27T14:58:44.999Z,98860.31
2023-01-27T15:01:27.084Z,98861.05
2023-01-27T15:04:29.081Z,98857.20
2023-01-27T15:07:31.130Z,98867.67
2023-01-27T15:10:24.928Z,98870.88
2023-01-27T15:13:23.063Z,98872.29
2023-01-27T15:16:26.930Z,98873.68
2023-01-27T15:19:38.892Z,98880.11
2023-01-27T15:22:45.871Z,98890.35
2023-01-27T15:25:44.574Z,98889.11
2023-01-27T15:28:21.008Z,98891.64
2023-01-27T15:31:21.039Z,98890.20
2023-01-27T15:34:04.245Z,98894.13
2023-01-27T15:36:46.870Z,98894.30
2023-01-27T15:39:40.383Z,98897.75
2023-01-27T15:42:29.646Z,98892.95
2023-01-27T15:45:12.458Z,98890.46
2023-01-27T15:47:53.880Z,98891.54
2023-01-27T15:50:53.038Z,98888.92
2023-01-27T15:53:38.409Z,98891.29
2023-01-27T15:56:20.073Z,98895.64
2023-01-27T15:59:13.874Z,98898.85
2023-01-27T16:02:19.909Z,98902.73
2023-01-27T16:05:23.042Z,98905.89
2023-01-27T16:08:09.893Z,98907.77
2023-01-27T16:10:52.132Z,98912.89
2023-01-27T16:13:36.278Z,98908.67
2023-01-27T16:16:24.644Z,98909.48
2023-01-27T16:19:28.881Z,98908.90
2023-01-27T16:22:13.049Z,98910.06
2023-01-27T16:25:06.445Z,98913.94
2023-01-27T16:28:13.968Z,98918.23
2023-01-27T16:31:15.930Z,98924.30
2023-01-27T16:33:59.218Z,98922.96
2023-01-27T16:36:49.902Z,98924.33
2023-01-27T16:39:48.430Z,98926.25
2023-01-27T16:42:48.085Z,98923.09
2023-01-27T16:45:27.437Z,98924.31
2023-01-27T16:48:20.853Z,98922.61
2023-01-27T16:51:12.963Z,98923.73
2023-01-27T16:54:05.859Z,98924.38
2023-01-27T16:56:48.295Z,98926.81
2023-01-27T16:59:41.897Z,98927.38
2023-01-27T17:02:22.683Z,98928.32
2023-01-27T17:05:18.884Z,98930.39
2023-01-27T17:08:24.475Z,98938.85
2023-01-27T17:11:39.908Z,98940.15
2023-01-27T17:14:49.872Z,98932.98
2023-01-27T17:17:40.919Z,98930.98
2023-01-27T17:20:15.983Z,98932.36
2023-01-27T17:23:04.099Z,98935.70
2023-01-27T17:25:42.151Z,98936.59
2023-01-27T17:28:39.949Z,98938.27
2023-01-27T17:31:36.300Z,98936.62
2023-01-27T17:34:27.237Z,98941.98
2023-01-27T17:37:20.027Z,98944.39
2023-01-27T17:40:13.070Z,98948.77
2023-01-27T17:42:56.828Z,98948.98
2023-01-27T17:45:46.905Z,98944.99
2023-01-27T17:48:22.014Z,98947.84
2023-01-27T17:51:09.857Z,98949.30
2023-01-27T17:53:46.177Z,98952.52
2023-01-27T17:56:39.938Z,98954.55
2023-01-27T17:59:21.037Z,98956.07
2023-01-27T18:02:42.874Z,98960.75
2023-01-27T18:05:26.256Z,98959.45
2023-01-27T18:08:19.856Z,98969.73
2023-01-27T18:11:02.870Z,98971.83
2023-01-27T18:13:55.917Z,98974.46
2023-01-27T18:16:38.016Z,98971.85
2023-01-27T18:19:36.011Z,98973.79
2023-01-27T18:22:25.860Z,98974.23
2023-01-27T18:25:14.981Z,98978.29
2023-01-27T18:28:00.717Z,98981.89
2023-01-27T18:30:50.323Z,98979.08
2023-01-27T18:33:28.144Z,98979.66
2023-01-27T18:36:20.046Z,98983.40
2023-01-27T18:38:56.691Z,98983.37
2023-01-27T18:41:45.825Z,98985.32
2023-01-27T18:44:27.816Z,98985.60
2023-01-27T18:47:36.030Z,98983.00
2023-01-27T18:50:20.937Z,98987.58
2023-01-27T18:53:09.005Z,98985.00
2023-01-27T18:55:44.396Z,98991.05
2023-01-27T18:58:32.036Z,98998.13
2023-01-27T19:01:24.826Z,99000.15
2023-01-27T19:04:05.979Z,98996.73
2023-01-27T19:06:53.908Z,98997.77
2023-01-27T19:09:35.863Z,99002.13
2023-01-27T19:12:25.890Z,98997.91
2023-01-27T19:15:01.246Z,98995.05
2023-01-27T19:17:50.812Z,99001.52
2023-01-27T19:20:28.475Z,99005.40
2023-01-27T19:23:21.249Z,99004.98
2023-01-27T19:26:01.206Z,99004.82
2023-01-27T19:29:05.292Z,99014.27
2023-01-27T19:32:01.906Z,99015.16
2023-01-27T19:34:49.863Z,99013.91
2023-01-27T19:37:34.485Z,99013.98
2023-01-27T19:40:48.468Z,99012.88
2023-01-27T19:43:31.420Z,99015.46
2023-01-27T19:46:26.346Z,99013.27
2023-01-27T19:49:06.503Z,99012.14
2023-01-27T19:51:55.009Z,99017.64
2023-01-27T19:54:30.635Z,99014.11
2023-01-27T19:57:24.863Z,99015.16
2023-01-27T20:00:01.320Z,99019.82
2023-01-27T20:02:48.850Z,99027.69
2023-01-27T20:05:24.141Z,99031.89
2023-01-27T20:08:17.037Z,99037.34
2023-01-27T20:10:59.016Z,99034.39
2023-01-27T20:13:46.872Z,99035.71
2023-01-27T20:16:31.187Z,99033.66
2023-01-27T20:19:21.803Z,99036.21
2023-01-27T20:21:59.054Z,99038.10
2023-01-27T20:24:46.799Z,99035.45
2023-01-27T20:27:21.162Z,99036.60
2023-01-27T20:30:18.133Z,99042.48
2023-01-27T20:33:16.023Z,99037.55
2023-01-27T20:36:04.883Z,99035.20
2023-01-27T20:38:43.977Z,99032.45
2023-01-27T20:41:32.803Z,99033.11
2023-01-27T20:44:15.861Z,99035.27
2023-01-27T20:47:04.026Z,99036.69
2023-01-27T20:49:46.122Z,99035.73
2023-01-27T20:52:28.975Z,99034.34
2023-01-27T20:55:14.181Z,99035.29
2023-01-27T20:57:57.815Z,99035.42
2023-01-27T21:00:46.563Z,99033.88
2023-01-27T21:03:30.154Z,99031.48
2023-01-27T21:06:14.185Z,99027.05
2023-01-27T21:08:55.795Z,99025.67
2023-01-27T21:11:38.170Z,99027.44
2023-01-27T21:14:19.989Z,99024.09
2023-01-27T21:17:02.114Z,99025.26
2023-01-27T21:19:44.916Z,99026.25
2023-01-27T21:22:26.340Z,99023.14
2023-01-27T21:25:09.407Z,99024.40
2023-01-27T21:27:59.009Z,99023.35
2023-01-27T21:30:41.021Z,99024.94
2023-01-27T21:33:28.807Z,99025.61
2023-01-27T21:36:10.622Z,99024.73
2023-01-27T21:39:00.787Z,99025.94
2023-01-27T21:41:58.160Z,99024.43
2023-01-27T21:45:04.008Z,99023.63
2023-01-27T21:47:44.973Z,99024.96
2023-01-27T21:50:27.110Z,99028.02
2023-01-27T21:53:15.779Z,99033.41
2023-01-27T21:55:57.179Z,99031.73
2023-01-27T21:58:44.025Z,99035.79
2023-01-27T22:01:31.734Z,99028.83
2023-01-27T22:04:16.837Z,99029.09
2023-01-27T22:07:05.461Z,99025.84
2023-01-27T22:09:53.024Z,99024.51
2023-01-27T22:12:49.736Z,99024.25
2023-01-27T22:15:36.419Z,99022.81
2023-01-27T22:18:39.233Z,99025.90
2023-01-27T22:21:16.489Z,99024.00
2023-01-27T22:24:05.795Z,99021.52
2023-01-27T22:27:01.969Z,99020.92
2023-01-27T22:29:51.728Z,99020.86
2023-01-27T22:32:27.050Z,99019.89
2023-01-27T22:35:17.344Z,99018.77
2023-01-27T22:37:53.273Z,99021.89
2023-01-27T22:40:40.980Z,99024.90
2023-01-27T22:43:16.108Z,99026.24
2023-01-27T22:46:08.856Z,99022.27
2023-01-27T22:48:56.769Z,99018.36
2023-01-27T22:51:31.192Z,99017.33
2023-01-27T22:54:18.831Z,99016.51
2023-01-27T22:56:53.194Z,99012.73
2023-01-27T22:59:44.768Z,99013.52
2023-01-27T23:02:19.488Z,99013.55
2023-01-27T23:05:09.777Z,99016.11
2023-01-27T23:07:44.286Z,99018.16
2023-01-27T23:10:33.984Z,99017.61
2023-01-27T23:13:10.176Z,99020.35
2023-01-27T23:15:57.975Z,99020.48
2023-01-27T23:18:52.762Z,99017.98
2023-01-27T23:21:40.742Z,99017.45
2023-01-27T23:24:22.987Z,99016.65
2023-01-27T23:27:11.764Z,99018.17
2023-01-27T23:29:53.770Z,99018.50
2023-01-27T23:32:49.762Z,99012.80
2023-01-27T23:35:37.749Z,99010.60
2023-01-27T23:38:26.339Z,99006.16
2023-01-27T23:41:24.751Z,99009.89
2023-01-27T23:44:07.773Z,99010.31
2023-01-27T23:46:56.767Z,99003.41
2023-01-27T23:49:37.886Z,98999.73
2023-01-27T23:52:18.768Z,98995.10
2023-01-27T23:54:59.891Z,98991.14
2023-01-27T23:57:40.763Z,98990.86
